Bellmawr, New Jersey
Current Conditions -  °F | °C
As of 12:54 PM on Thursday 18 Dec 2014 (Local Time) from KPHL Reporting Station
Broken Clouds Broken Clouds  
Wind Chill: 31°   Ceiling: 3800
Heat Index: 39°   Visibility: 10mi
Dew Point: 23°   Wind: 15mph
Humidity: 53%   Direction: 290°WNW
Pressure: 30.05"   Gusts: 21mph
Location:  39.87°N, 75.08°W
Report Text: KPHL 181754Z 29013G18KT 10SM BKN038 04/M05 A3005 RMK AO2 SLP175 T00391050 10039 20011 58019
Loading
Personal Weather Stations






























Interactive Weather Map New forecast layout! Learn more

10-Day Weather Forecast

Advertisements
Track Severe Weather on mobile